createdAt,value
2019-06-08T00:01:31.916Z,17.90
2019-06-08T00:04:02.059Z,17.65
2019-06-08T00:06:33.678Z,18.50
2019-06-08T00:09:04.867Z,20.90
2019-06-08T00:11:35.382Z,20.32
2019-06-08T00:14:05.572Z,17.35
2019-06-08T00:16:35.721Z,16.87
2019-06-08T00:19:05.907Z,20.52
2019-06-08T00:21:36.160Z,19.50
2019-06-08T00:24:06.307Z,25.88
2019-06-08T00:26:36.482Z,16.57
2019-06-08T00:29:06.675Z,23.27
2019-06-08T00:31:36.917Z,17.87
2019-06-08T00:34:07.993Z,14.85
2019-06-08T00:36:39.949Z,19.57
2019-06-08T00:39:11.215Z,22.30
2019-06-08T00:41:41.527Z,17.35
2019-06-08T00:44:11.662Z,21.07
2019-06-08T00:46:41.889Z,17.70
2019-06-08T00:49:12.003Z,21.65
2019-06-08T00:51:43.954Z,26.20
2019-06-08T00:54:14.146Z,25.47
2019-06-08T00:56:44.298Z,22.98
2019-06-08T00:59:14.569Z,21.48
2019-06-08T01:01:44.771Z,23.52
2019-06-08T01:04:14.945Z,23.50
2019-06-08T01:06:45.353Z,20.40
2019-06-08T01:09:16.609Z,25.17
2019-06-08T01:11:46.861Z,28.12
2019-06-08T01:14:17.026Z,23.12
2019-06-08T01:16:47.165Z,19.92
2019-06-08T01:19:17.262Z,21.00
2019-06-08T01:21:47.920Z,19.92
2019-06-08T01:24:19.528Z,24.05
2019-06-08T01:26:50.087Z,24.67
2019-06-08T01:29:20.370Z,24.80
2019-06-08T01:31:50.544Z,19.30
2019-06-08T01:34:20.700Z,18.40
2019-06-08T01:36:52.647Z,22.42
2019-06-08T01:39:23.061Z,24.92
2019-06-08T01:41:53.815Z,23.38
2019-06-08T01:44:25.664Z,26.37
2019-06-08T01:46:55.870Z,26.48
2019-06-08T01:49:26.249Z,20.40
2019-06-08T01:51:57.261Z,25.57
2019-06-08T01:54:27.506Z,24.25
2019-06-08T01:56:57.651Z,19.20
2019-06-08T01:59:27.890Z,20.90
2019-06-08T02:01:58.042Z,22.75
2019-06-08T02:04:28.205Z,26.80
2019-06-08T02:06:58.818Z,23.77
2019-06-08T02:09:28.975Z,24.87
2019-06-08T02:11:59.091Z,23.52
2019-06-08T02:14:31.060Z,22.73
2019-06-08T02:17:01.553Z,19.45
2019-06-08T02:19:32.670Z,25.12
2019-06-08T02:22:04.525Z,26.07
2019-06-08T02:27:03.922Z,24.45
2019-06-08T02:29:34.096Z,28.57
2019-06-08T02:32:04.233Z,28.07
2019-06-08T02:34:35.990Z,25.20
2019-06-08T02:39:40.714Z,29.27
2019-06-08T02:42:10.855Z,25.75
2019-06-08T02:44:42.632Z,25.17
2019-06-08T02:49:43.692Z,26.93
2019-06-08T02:52:15.144Z,29.25
2019-06-08T02:54:45.274Z,26.97
2019-06-08T02:57:15.676Z,25.23
2019-06-08T02:59:46.894Z,26.93
2019-06-08T03:02:18.730Z,28.12
2019-06-08T03:04:51.158Z,30.15
2019-06-08T03:07:22.801Z,31.85
2019-06-08T03:09:56.614Z,26.48
2019-06-08T03:12:27.698Z,28.23
2019-06-08T03:14:58.040Z,30.27
2019-06-08T03:17:29.086Z,27.05
2019-06-08T03:20:01.061Z,26.93
2019-06-08T03:22:32.028Z,26.00
2019-06-08T03:25:05.236Z,22.65
2019-06-08T03:27:36.792Z,27.87
2019-06-08T03:30:17.705Z,25.85
2019-06-08T03:32:50.580Z,30.45
2019-06-08T03:35:12.862Z,25.15
2019-06-08T03:37:44.603Z,22.22
2019-06-08T03:40:17.386Z,25.05
2019-06-08T03:42:49.071Z,23.38
2019-06-08T03:45:19.466Z,22.20
2019-06-08T03:47:51.062Z,23.75
2019-06-08T03:50:21.332Z,26.65
2019-06-08T03:52:51.876Z,25.95
2019-06-08T03:55:22.184Z,31.65
2019-06-08T03:57:52.291Z,27.15
2019-06-08T04:00:22.766Z,32.00
2019-06-08T04:02:52.931Z,29.65
2019-06-08T04:05:23.121Z,37.10
2019-06-08T04:07:53.570Z,29.32
2019-06-08T04:10:23.703Z,26.70
2019-06-08T04:12:53.926Z,30.43
2019-06-08T04:15:24.135Z,28.83
2019-06-08T04:17:54.270Z,35.73
2019-06-08T04:20:24.395Z,30.85
2019-06-08T04:22:54.814Z,33.45
2019-06-08T04:25:24.951Z,25.75
2019-06-08T04:27:55.112Z,27.75
2019-06-08T04:30:25.323Z,25.45
2019-06-08T04:32:55.487Z,22.67
2019-06-08T04:35:26.988Z,35.50
2019-06-08T04:37:57.824Z,30.10
2019-06-08T04:40:27.996Z,27.47
2019-06-08T04:42:58.985Z,23.65
2019-06-08T04:45:29.237Z,23.87
2019-06-08T04:48:00.248Z,23.32
2019-06-08T04:50:30.651Z,28.25
2019-06-08T04:53:01.577Z,23.80
2019-06-08T04:55:31.742Z,29.23
2019-06-08T04:58:02.193Z,23.83
2019-06-08T05:00:32.395Z,24.90
2019-06-08T05:03:02.665Z,19.10
2019-06-08T05:05:32.828Z,23.77
2019-06-08T05:08:03.273Z,22.20
2019-06-08T05:10:33.535Z,18.42
2019-06-08T05:13:03.656Z,23.10
2019-06-08T05:15:34.009Z,21.37
2019-06-08T05:18:04.345Z,18.65
2019-06-08T05:20:39.111Z,25.50
2019-06-08T05:23:06.832Z,22.85
2019-06-08T05:25:37.015Z,22.85
2019-06-08T05:28:07.179Z,19.65
2019-06-08T05:30:37.256Z,18.90
2019-06-08T05:33:07.417Z,21.48
2019-06-08T05:35:37.579Z,18.95
2019-06-08T05:38:09.165Z,18.00
2019-06-08T05:40:39.515Z,19.05
2019-06-08T05:43:10.469Z,22.45
2019-06-08T05:45:41.513Z,20.97
2019-06-08T05:48:11.836Z,14.63
2019-06-08T05:50:56.858Z,22.70
2019-06-08T05:53:14.885Z,16.55
2019-06-08T05:55:46.101Z,13.05
2019-06-08T05:58:16.521Z,14.43
2019-06-08T06:00:46.711Z,17.40
2019-06-08T06:03:16.884Z,17.00
2019-06-08T06:05:47.061Z,16.12
2019-06-08T06:08:19.254Z,14.68
2019-06-08T06:10:51.017Z,19.62
2019-06-08T06:13:21.822Z,16.32
2019-06-08T06:15:51.975Z,11.05
2019-06-08T06:18:22.130Z,12.35
2019-06-08T06:20:52.264Z,18.95
2019-06-08T06:23:23.201Z,13.27
2019-06-08T06:25:53.340Z,13.62
2019-06-08T06:28:23.481Z,20.10
2019-06-08T06:30:53.682Z,11.55
2019-06-08T06:33:23.804Z,15.90
2019-06-08T06:35:53.976Z,16.17
2019-06-08T06:38:24.752Z,10.82
2019-06-08T06:40:54.869Z,26.67
2019-06-08T06:43:25.075Z,16.15
2019-06-08T06:45:55.203Z,14.13
2019-06-08T06:48:25.294Z,15.90
2019-06-08T06:50:55.505Z,11.55
2019-06-08T06:53:26.143Z,16.25
2019-06-08T06:55:56.258Z,16.90
2019-06-08T06:58:26.416Z,14.50
2019-06-08T07:00:57.473Z,16.55
2019-06-08T07:03:27.657Z,15.63
2019-06-08T07:05:57.832Z,15.35
2019-06-08T07:08:28.362Z,16.90
2019-06-08T07:10:58.478Z,14.18
2019-06-08T07:13:28.694Z,12.73
2019-06-08T07:15:58.730Z,17.60
2019-06-08T07:18:28.902Z,12.88
2019-06-08T07:20:59.035Z,13.32
2019-06-08T07:23:29.418Z,18.15
2019-06-08T07:25:59.561Z,20.82
2019-06-08T07:28:29.788Z,20.17
2019-06-08T07:30:59.876Z,14.90
2019-06-08T07:33:30.024Z,16.55
2019-06-08T07:36:00.072Z,19.90
2019-06-08T07:38:30.714Z,15.10
2019-06-08T07:41:01.881Z,19.03
2019-06-08T07:43:33.459Z,15.10
2019-06-08T07:46:03.610Z,12.43
2019-06-08T07:48:33.791Z,22.65
2019-06-08T07:51:03.993Z,15.38
2019-06-08T07:53:34.691Z,18.10
2019-06-08T07:56:04.847Z,19.07
2019-06-08T07:58:34.953Z,16.10
2019-06-08T08:01:08.095Z,12.50
2019-06-08T08:03:37.099Z,14.38
2019-06-08T08:06:07.161Z,18.65
2019-06-08T08:08:38.950Z,9.93
2019-06-08T08:11:09.377Z,14.70
2019-06-08T08:13:39.526Z,14.58
2019-06-08T08:16:09.657Z,11.53
2019-06-08T08:18:41.430Z,14.60
2019-06-08T08:21:21.336Z,9.68
2019-06-08T08:23:44.106Z,10.43
2019-06-08T08:26:14.246Z,13.75
2019-06-08T08:28:44.378Z,10.90
2019-06-08T08:31:18.417Z,11.73
2019-06-08T08:33:49.863Z,14.40
2019-06-08T08:36:21.014Z,11.60
2019-06-08T08:38:53.609Z,11.83
2019-06-08T08:41:27.804Z,11.68
2019-06-08T08:43:58.969Z,9.70
2019-06-08T08:46:29.583Z,22.20
2019-06-08T08:49:09.119Z,8.50
2019-06-08T08:51:33.066Z,14.78
2019-06-08T08:54:05.475Z,14.53
2019-06-08T08:56:38.156Z,12.75
2019-06-08T08:59:10.438Z,14.13
2019-06-08T09:01:41.009Z,12.47
2019-06-08T09:04:11.263Z,12.05
2019-06-08T09:06:42.296Z,11.48
2019-06-08T09:09:12.875Z,17.15
2019-06-08T09:11:43.008Z,8.43
2019-06-08T09:14:15.035Z,11.95
2019-06-08T09:16:48.006Z,16.55
2019-06-08T09:19:20.890Z,13.10
2019-06-08T09:21:49.833Z,8.70
2019-06-08T09:24:20.379Z,9.88
2019-06-08T09:26:52.348Z,9.23
2019-06-08T09:29:22.638Z,11.18
2019-06-08T09:31:53.721Z,18.55
2019-06-08T09:34:24.422Z,17.75
2019-06-08T09:36:56.588Z,18.17
2019-06-08T09:39:28.628Z,14.53
2019-06-08T09:42:01.920Z,12.37
2019-06-08T09:44:30.473Z,14.55
2019-06-08T09:47:05.658Z,12.82
2019-06-08T09:49:32.535Z,13.15
2019-06-08T09:52:04.100Z,12.60
2019-06-08T09:54:35.481Z,15.45
2019-06-08T09:57:06.662Z,12.58
2019-06-08T09:59:39.109Z,12.58
2019-06-08T10:02:12.765Z,7.87
2019-06-08T10:04:42.773Z,13.62
2019-06-08T10:07:12.905Z,12.73
2019-06-08T10:09:43.555Z,12.95
2019-06-08T10:12:14.138Z,11.48
2019-06-08T10:14:44.162Z,15.68
2019-06-08T10:17:14.370Z,8.70
2019-06-08T10:19:44.583Z,9.15
2019-06-08T10:22:14.788Z,12.07
2019-06-08T10:24:48.834Z,11.20
2019-06-08T10:27:19.641Z,11.12
2019-06-08T10:29:49.769Z,19.35
2019-06-08T10:32:22.128Z,11.88
2019-06-08T10:34:52.291Z,10.53
2019-06-08T10:37:22.571Z,11.68
2019-06-08T10:39:53.600Z,14.05
2019-06-08T10:42:23.775Z,12.13
2019-06-08T10:44:53.953Z,21.23
2019-06-08T10:47:24.088Z,11.57
2019-06-08T10:49:54.256Z,17.80
2019-06-08T10:52:24.425Z,12.95
2019-06-08T10:54:54.972Z,16.12
2019-06-08T10:57:25.057Z,12.80
2019-06-08T10:59:57.567Z,12.80
2019-06-08T11:02:28.429Z,13.15
2019-06-08T11:05:03.098Z,14.83
2019-06-08T11:07:30.651Z,14.85
2019-06-08T11:12:33.720Z,13.10
2019-06-08T11:15:05.379Z,10.15
2019-06-08T11:17:37.872Z,12.28
2019-06-08T11:20:11.800Z,10.50
2019-06-08T11:22:41.920Z,11.50
2019-06-08T11:25:16.175Z,10.78
2019-06-08T11:27:44.314Z,11.70
2019-06-08T11:30:23.594Z,15.88
2019-06-08T11:32:48.129Z,12.35
2019-06-08T11:35:18.677Z,10.40
2019-06-08T11:37:48.973Z,17.82
2019-06-08T11:40:20.837Z,12.00
2019-06-08T11:42:51.274Z,10.32
2019-06-08T11:45:21.668Z,11.35
2019-06-08T11:47:51.810Z,10.78
2019-06-08T11:50:42.198Z,11.45
2019-06-08T11:53:14.665Z,8.70
2019-06-08T11:55:50.720Z,11.95
2019-06-08T11:58:22.834Z,9.45
2019-06-08T12:01:08.976Z,8.48
2019-06-08T12:03:38.729Z,8.95
2019-06-08T12:06:12.953Z,11.12
2019-06-08T12:08:42.362Z,12.35
2019-06-08T12:11:18.079Z,11.30
2019-06-08T12:13:44.523Z,15.68
2019-06-08T12:16:18.698Z,12.63
2019-06-08T12:18:49.272Z,12.30
2019-06-08T12:21:18.710Z,18.73
2019-06-08T12:23:50.688Z,19.75
2019-06-08T12:26:20.935Z,19.65
2019-06-08T12:28:51.075Z,18.77
2019-06-08T12:31:22.593Z,18.52
2019-06-08T12:33:53.890Z,20.08
2019-06-08T12:36:24.035Z,19.75
2019-06-08T12:38:55.029Z,21.52
2019-06-08T12:41:25.370Z,16.25
2019-06-08T12:43:57.939Z,20.90
2019-06-08T12:46:28.006Z,15.95
2019-06-08T12:48:58.575Z,12.37
2019-06-08T12:51:29.414Z,13.40
2019-06-08T12:54:00.897Z,16.62
2019-06-08T12:59:00.674Z,15.38
2019-06-08T13:01:30.812Z,14.98
2019-06-08T13:04:01.034Z,19.77
2019-06-08T13:06:31.612Z,19.15
2019-06-08T13:09:01.823Z,12.68
2019-06-08T13:11:34.055Z,17.77
2019-06-08T13:14:04.279Z,15.97
2019-06-08T13:16:34.502Z,16.27
2019-06-08T13:19:04.900Z,19.82
2019-06-08T13:21:35.737Z,16.32
2019-06-08T13:24:08.751Z,13.08
2019-06-08T13:26:39.727Z,20.27
2019-06-08T13:29:11.004Z,15.30
2019-06-08T13:31:42.346Z,13.62
2019-06-08T13:34:14.205Z,14.30
2019-06-08T13:36:44.409Z,13.35
2019-06-08T13:39:20.134Z,19.12
2019-06-08T13:41:52.070Z,15.08
2019-06-08T13:44:22.002Z,14.70
2019-06-08T13:46:52.394Z,16.42
2019-06-08T13:49:27.316Z,18.05
2019-06-08T13:51:58.131Z,19.73
2019-06-08T13:54:31.296Z,20.08
2019-06-08T13:57:00.919Z,12.78
2019-06-08T13:59:31.115Z,19.92
2019-06-08T14:02:01.549Z,17.75
2019-06-08T14:04:32.455Z,19.17
2019-06-08T14:07:02.625Z,21.00
2019-06-08T14:09:33.135Z,18.77
2019-06-08T14:12:03.673Z,22.22
2019-06-08T14:14:33.956Z,20.25
2019-06-08T14:17:04.173Z,21.90
2019-06-08T14:19:34.318Z,15.15
2019-06-08T14:22:04.663Z,19.02
2019-06-08T14:24:37.603Z,17.40
2019-06-08T14:27:08.248Z,22.05
2019-06-08T14:29:38.873Z,21.50
2019-06-08T14:32:09.080Z,23.85
2019-06-08T14:34:41.718Z,14.55
2019-06-08T14:37:11.952Z,20.20
2019-06-08T14:39:43.450Z,18.15
2019-06-08T14:44:43.474Z,19.02
2019-06-08T14:47:16.204Z,22.17
2019-06-08T14:49:48.840Z,13.53
2019-06-08T14:52:21.868Z,15.85
2019-06-08T14:54:51.382Z,14.60
2019-06-08T14:57:23.362Z,17.70
2019-06-08T15:02:28.551Z,23.07
2019-06-08T15:04:58.043Z,12.75
2019-06-08T15:07:31.328Z,17.02
2019-06-08T15:10:01.035Z,19.07
2019-06-08T15:12:31.555Z,11.25
2019-06-08T15:15:02.066Z,13.95
2019-06-08T15:17:33.097Z,12.18
2019-06-08T15:20:04.623Z,15.98
2019-06-08T15:25:08.220Z,18.02
2019-06-08T15:27:41.119Z,23.22
2019-06-08T15:30:11.918Z,12.85
2019-06-08T15:32:42.082Z,12.25
2019-06-08T15:35:12.715Z,13.90
2019-06-08T15:37:43.175Z,15.03
2019-06-08T15:40:13.663Z,13.98
2019-06-08T15:42:44.591Z,15.50
2019-06-08T15:45:14.962Z,17.12
2019-06-08T15:47:45.119Z,12.63
2019-06-08T15:50:18.069Z,16.60
2019-06-08T15:52:48.384Z,11.73
2019-06-08T15:55:19.465Z,18.27
2019-06-08T15:57:50.608Z,22.98
2019-06-08T16:00:20.770Z,22.80
2019-06-08T16:02:51.025Z,11.40
2019-06-08T16:05:21.141Z,13.90
2019-06-08T16:07:52.329Z,21.70
2019-06-08T16:10:23.941Z,19.00
2019-06-08T16:12:56.349Z,12.80
2019-06-08T16:15:26.842Z,20.75
2019-06-08T16:17:58.395Z,15.90
2019-06-08T16:20:29.538Z,14.25
2019-06-08T16:22:59.819Z,16.70
2019-06-08T16:25:29.919Z,15.58
2019-06-08T16:28:01.684Z,14.63
2019-06-08T16:30:33.117Z,16.75
2019-06-08T16:35:33.756Z,16.97
2019-06-08T16:38:04.662Z,16.17
2019-06-08T16:40:36.220Z,14.23
2019-06-08T16:43:07.010Z,17.75
2019-06-08T16:45:37.303Z,11.33
2019-06-08T16:48:08.855Z,12.43
2019-06-08T16:50:39.092Z,13.83
2019-06-08T16:53:09.192Z,16.95
2019-06-08T16:55:39.386Z,15.05
2019-06-08T16:58:10.041Z,20.90
2019-06-08T17:00:42.430Z,14.50
2019-06-08T17:03:13.068Z,14.80
2019-06-08T17:05:43.274Z,13.35
2019-06-08T17:08:13.548Z,12.40
2019-06-08T17:10:43.769Z,19.77
2019-06-08T17:13:14.298Z,16.62
2019-06-08T17:18:14.907Z,18.20
2019-06-08T17:20:46.971Z,18.98
2019-06-08T17:23:17.209Z,14.03
2019-06-08T17:25:47.772Z,12.73
2019-06-08T17:28:18.409Z,15.08
2019-06-08T17:30:48.577Z,14.47
2019-06-08T17:33:18.689Z,17.30
2019-06-08T17:35:50.241Z,11.95
2019-06-08T17:38:20.487Z,13.43
2019-06-08T17:40:50.503Z,15.38
2019-06-08T17:43:21.224Z,15.32
2019-06-08T17:45:52.683Z,14.33
2019-06-08T17:48:23.946Z,16.67
2019-06-08T17:50:54.090Z,12.80
2019-06-08T17:53:24.300Z,11.80
2019-06-08T17:55:54.516Z,12.18
2019-06-08T17:58:25.195Z,19.20
2019-06-08T18:00:55.339Z,14.17
2019-06-08T18:03:27.782Z,10.80
2019-06-08T18:05:58.298Z,9.08
2019-06-08T18:08:28.473Z,8.75
2019-06-08T18:10:58.619Z,18.40
2019-06-08T18:13:30.413Z,17.37
2019-06-08T18:16:00.579Z,12.28
2019-06-08T18:18:31.061Z,9.23
2019-06-08T18:21:01.209Z,13.22
2019-06-08T18:23:34.225Z,11.48
2019-06-08T18:26:07.588Z,11.10
2019-06-08T18:28:39.589Z,12.25
2019-06-08T18:31:09.641Z,13.40
2019-06-08T18:33:41.666Z,10.90
2019-06-08T18:36:12.996Z,8.83
2019-06-08T18:38:44.289Z,8.40
2019-06-08T18:41:15.022Z,8.08
2019-06-08T18:43:48.493Z,9.10
2019-06-08T18:46:17.971Z,9.30
2019-06-08T18:48:49.649Z,14.18
2019-06-08T18:51:22.478Z,8.85
2019-06-08T18:54:07.189Z,15.28
2019-06-08T18:56:24.703Z,8.28
2019-06-08T18:58:58.290Z,6.62
2019-06-08T19:01:28.629Z,12.00
2019-06-08T19:03:58.861Z,6.75
2019-06-08T19:06:29.893Z,7.40
2019-06-08T19:09:00.302Z,9.23
2019-06-08T19:11:30.793Z,19.10
2019-06-08T19:14:03.074Z,12.37
2019-06-08T19:16:33.228Z,6.62
2019-06-08T19:19:03.379Z,6.95
2019-06-08T19:21:33.515Z,10.85
2019-06-08T19:24:03.611Z,6.15
2019-06-08T19:26:33.793Z,6.20
2019-06-08T19:29:04.665Z,9.38
2019-06-08T19:31:37.076Z,8.80
2019-06-08T19:36:39.990Z,8.18
2019-06-08T19:39:10.711Z,17.60
2019-06-08T19:41:42.558Z,11.33
2019-06-08T19:44:13.510Z,10.90
2019-06-08T19:46:44.432Z,10.60
2019-06-08T19:49:17.172Z,7.97
2019-06-08T19:51:48.512Z,10.68
2019-06-08T19:54:18.788Z,8.13
2019-06-08T19:56:54.361Z,8.13
2019-06-08T19:59:27.416Z,5.60
2019-06-08T20:01:59.803Z,6.10
2019-06-08T20:04:29.489Z,7.50
2019-06-08T20:07:00.644Z,4.58
2019-06-08T20:09:31.040Z,4.92
2019-06-08T20:12:02.183Z,5.03
2019-06-08T20:14:33.844Z,5.70
2019-06-08T20:19:33.405Z,9.25
2019-06-08T20:22:03.683Z,6.37
2019-06-08T20:24:33.854Z,8.70
2019-06-08T20:27:04.082Z,3.92
2019-06-08T20:29:38.123Z,6.20
2019-06-08T20:32:08.621Z,4.47
2019-06-08T20:34:39.524Z,5.75
2019-06-08T20:37:10.056Z,6.70
2019-06-08T20:39:53.666Z,7.35
2019-06-08T20:42:12.543Z,6.58
2019-06-08T20:44:43.995Z,8.53
2019-06-08T20:47:14.322Z,3.83
2019-06-08T20:49:48.667Z,2.92
2019-06-08T20:52:18.017Z,4.85
2019-06-08T20:54:50.439Z,6.25
2019-06-08T20:57:22.638Z,3.50
2019-06-08T20:59:55.832Z,8.10
2019-06-08T21:02:28.479Z,7.78
2019-06-08T21:05:00.220Z,5.28
2019-06-08T21:07:30.486Z,7.72
2019-06-08T21:10:00.573Z,5.53
2019-06-08T21:12:30.901Z,3.05
2019-06-08T21:15:01.463Z,5.85
2019-06-08T21:17:31.680Z,8.30
2019-06-08T21:20:01.795Z,4.62
2019-06-08T21:22:32.304Z,4.70
2019-06-08T21:25:02.569Z,3.30
2019-06-08T21:27:32.953Z,5.12
2019-06-08T21:30:11.783Z,3.72
2019-06-08T21:32:37.506Z,3.58
2019-06-08T21:37:38.548Z,6.20
2019-06-08T21:40:08.861Z,5.47
2019-06-08T21:42:39.573Z,4.37
2019-06-08T21:45:10.550Z,2.97
2019-06-08T21:47:40.686Z,7.45
2019-06-08T21:50:12.430Z,3.95
2019-06-08T21:55:12.057Z,4.87
2019-06-08T21:57:43.756Z,7.95
2019-06-08T22:02:47.988Z,7.33
2019-06-08T22:05:18.265Z,4.15
2019-06-08T22:07:48.494Z,6.03
2019-06-08T22:10:20.987Z,9.38
2019-06-08T22:12:52.376Z,9.58
2019-06-08T22:15:23.272Z,7.05
2019-06-08T22:17:54.811Z,5.87
2019-06-08T22:22:55.138Z,4.90
2019-06-08T22:25:27.712Z,7.33
2019-06-08T22:28:01.041Z,5.95
2019-06-08T22:30:39.279Z,7.47
2019-06-08T22:33:04.389Z,5.33
2019-06-08T22:35:37.114Z,7.08
2019-06-08T22:38:08.428Z,6.33
2019-06-08T22:40:40.534Z,6.12
2019-06-08T22:43:10.806Z,10.38
2019-06-08T22:45:42.807Z,8.40
2019-06-08T22:48:12.947Z,4.58
2019-06-08T22:50:47.538Z,13.48
2019-06-08T22:53:17.279Z,6.50
2019-06-08T22:55:47.686Z,5.58
2019-06-08T22:58:20.936Z,7.15
2019-06-08T23:00:54.521Z,6.65
2019-06-08T23:03:24.683Z,4.10
2019-06-08T23:05:59.054Z,9.65
2019-06-08T23:08:26.602Z,4.65
2019-06-08T23:10:58.951Z,11.00
2019-06-08T23:16:02.181Z,6.47
2019-06-08T23:18:32.410Z,6.50
2019-06-08T23:21:04.170Z,11.78
2019-06-08T23:23:34.437Z,10.18
2019-06-08T23:26:07.232Z,8.28
2019-06-08T23:28:37.678Z,7.58
2019-06-08T23:31:21.110Z,7.35
2019-06-08T23:33:42.563Z,6.85
2019-06-08T23:38:44.537Z,6.37
2019-06-08T23:41:17.755Z,8.45
2019-06-08T23:43:48.029Z,6.60
2019-06-08T23:46:19.286Z,7.20
2019-06-08T23:48:49.408Z,10.25
2019-06-08T23:51:19.627Z,9.58
2019-06-08T23:53:49.798Z,14.98
2019-06-08T23:56:19.932Z,13.88
2019-06-08T23:58:50.066Z,8.13
